Time;durP1;ratioP1;P1;durP2;ratioP2;P2;SDS_P1;SDS_P2;PMS_P1;PMS_P2;Temp;Humidity;BMP_temperature;BMP_pressure;BME280_temperature;BME280_humidity;BME280_pressure;Samples;Min_cycle;Max_cycle;Signal;HPM_P1;HPM_P2
2022/05/20 00:00:41;;;;;;;24.05;13.65;;;14.20;99.90;;;;;;5025524;28;20486;-77
2022/05/20 00:03:07;;;;;;;19.67;13.05;;;14.20;99.90;;;;;;5011424;28;20037;-77
2022/05/20 00:05:33;;;;;;;23.05;13.82;;;14.10;99.90;;;;;;5026045;28;20025;-77
2022/05/20 00:07:59;;;;;;;23.67;13.63;;;14.10;99.90;;;;;;5027254;28;20021;-77
2022/05/20 00:10:25;;;;;;;22.70;14.02;;;14.10;99.90;;;;;;5028704;28;20029;-77
2022/05/20 00:12:51;;;;;;;22.48;13.23;;;14.10;99.90;;;;;;5022337;28;20367;-77
2022/05/20 00:15:20;;;;;;;19.55;13.15;;;14.10;99.90;;;;;;5013930;28;20033;-77
2022/05/20 00:17:46;;;;;;;22.17;13.73;;;14.10;99.90;;;;;;5010205;28;20034;-77
2022/05/20 00:20:14;;;;;;;21.58;12.80;;;14.10;99.90;;;;;;5025668;28;20075;-77
2022/05/20 00:22:40;;;;;;;19.00;13.30;;;14.00;99.90;;;;;;5025114;28;20096;-77
2022/05/20 00:27:51;;;;;;;;;;;14.00;99.90;;;;;;5014749;28;20544;-78
2022/05/20 00:30:16;;;;;;;25.70;14.10;;;14.00;99.90;;;;;;5027167;28;19921;-77
2022/05/20 00:32:42;;;;;;;23.10;14.30;;;14.00;99.90;;;;;;5029343;28;20116;-77
2022/05/20 00:35:09;;;;;;;19.33;12.40;;;13.90;99.90;;;;;;5033569;28;20036;-77
2022/05/20 00:37:35;;;;;;;23.38;13.52;;;13.90;99.90;;;;;;5025819;28;20072;-77
2022/05/20 00:40:01;;;;;;;20.33;13.82;;;13.90;99.90;;;;;;5013541;28;20486;-77
2022/05/20 00:42:27;;;;;;;22.17;13.73;;;13.90;99.90;;;;;;5012589;28;20041;-77
2022/05/20 00:44:53;;;;;;;18.85;12.82;;;13.90;99.90;;;;;;5014813;28;20109;-77
2022/05/20 00:47:18;;;;;;;20.35;12.90;;;13.90;99.90;;;;;;5013794;28;20030;-77
2022/05/20 00:49:48;;;;;;;20.92;13.20;;;13.90;99.90;;;;;;5014774;28;20025;-77
2022/05/20 00:52:17;;;;;;;19.08;14.05;;;13.90;99.90;;;;;;5013612;28;20036;-77
2022/05/20 00:54:47;;;;;;;22.05;13.85;;;13.90;99.90;;;;;;5013654;28;20121;-77
2022/05/20 00:57:27;;;;;;;24.23;14.85;;;13.90;99.90;;;;;;5024820;28;20041;-77
2022/05/20 00:59:57;;;;;;;26.25;17.08;;;13.80;99.90;;;;;;5032529;28;20034;-77
2022/05/20 01:02:24;;;;;;;24.25;17.17;;;13.80;99.90;;;;;;5032155;28;20060;-77
2022/05/20 01:04:56;;;;;;;29.67;18.75;;;13.80;99.90;;;;;;5032584;28;20043;-77
2022/05/20 01:07:22;;;;;;;24.75;16.63;;;13.80;99.90;;;;;;5032963;28;20025;-77
2022/05/20 01:09:48;;;;;;;27.63;18.55;;;13.80;99.90;;;;;;5031368;28;20053;-77
2022/05/20 01:12:14;;;;;;;26.90;18.23;;;13.80;99.90;;;;;;5017869;28;20099;-77
2022/05/20 01:14:39;;;;;;;28.35;18.83;;;13.80;99.90;;;;;;5013479;28;20034;-77
2022/05/20 01:17:07;;;;;;;27.30;19.15;;;13.80;99.90;;;;;;5014389;28;20034;-77
2022/05/20 01:19:44;;;;;;;34.15;22.98;;;13.80;99.90;;;;;;5031049;28;20033;-77
2022/05/20 01:22:12;;;;;;;34.53;23.05;;;13.80;99.90;;;;;;5031273;28;20445;-77
2022/05/20 01:24:37;;;;;;;38.67;23.90;;;13.80;99.90;;;;;;5025667;28;20112;-77
2022/05/20 01:27:03;;;;;;;39.30;24.70;;;13.90;99.90;;;;;;5022608;28;20516;-77
2022/05/20 01:29:30;;;;;;;43.78;25.27;;;13.90;99.90;;;;;;5027215;28;20029;-77
2022/05/20 01:31:55;;;;;;;36.38;23.90;;;13.90;99.90;;;;;;5030685;28;20042;-77
2022/05/20 01:34:21;;;;;;;40.40;26.58;;;13.90;99.90;;;;;;5027050;28;20030;-77
2022/05/20 01:36:47;;;;;;;45.65;26.10;;;13.90;99.90;;;;;;5013853;28;20121;-77
2022/05/20 01:39:14;;;;;;;40.00;26.25;;;13.90;99.90;;;;;;5024046;28;20080;-77
2022/05/20 01:41:56;;;;;;;44.38;26.98;;;13.80;99.90;;;;;;5012761;28;20030;-77
2022/05/20 01:44:30;;;;;;;45.03;27.75;;;13.80;99.90;;;;;;5021913;28;20385;-77
2022/05/20 01:47:22;;;;;;;43.38;26.50;;;13.80;99.90;;;;;;5012512;28;20036;-77
2022/05/20 01:50:10;;;;;;;41.95;27.40;;;13.80;99.90;;;;;;5013641;28;20030;-77
2022/05/20 01:52:45;;;;;;;41.40;27.48;;;13.80;99.90;;;;;;5012253;28;20038;-77
2022/05/20 01:55:40;;;;;;;39.50;27.73;;;13.80;99.90;;;;;;5012356;28;20104;-77
2022/05/20 01:58:29;;;;;;;39.13;27.95;;;13.70;99.90;;;;;;5011658;28;20073;-78
2022/05/20 02:00:59;;;;;;;38.85;26.65;;;13.70;99.90;;;;;;5027149;28;20049;-77
2022/05/20 02:03:51;;;;;;;38.72;26.73;;;13.70;99.90;;;;;;5031816;28;20030;-77
2022/05/20 02:06:24;;;;;;;37.65;25.35;;;13.70;99.90;;;;;;5020739;28;20087;-78
2022/05/20 02:09:20;;;;;;;36.72;25.05;;;13.60;99.90;;;;;;5016313;28;20036;-78
2022/05/20 02:11:54;;;;;;;37.63;26.50;;;13.60;99.90;;;;;;5013477;28;20026;-78
2022/05/20 02:14:35;;;;;;;44.20;26.60;;;13.60;99.90;;;;;;5020085;28;20459;-78
2022/05/20 02:17:09;;;;;;;41.75;26.13;;;13.60;99.90;;;;;;5031639;28;20057;-77
2022/05/20 02:19:56;;;;;;;42.42;27.95;;;13.60;99.90;;;;;;5028696;28;20029;-78
2022/05/20 02:22:26;;;;;;;43.70;27.48;;;13.50;99.90;;;;;;5023924;28;20100;-78
2022/05/20 02:24:53;;;;;;;44.95;29.92;;;13.50;99.90;;;;;;5018193;28;20584;-77
2022/05/20 02:27:22;;;;;;;43.60;29.55;;;13.50;99.90;;;;;;5031407;28;20099;-78
2022/05/20 02:30:11;;;;;;;45.83;29.50;;;13.50;99.90;;;;;;5023853;28;20058;-78
2022/05/20 02:32:46;;;;;;;44.75;29.13;;;13.50;99.90;;;;;;5011661;28;20022;-77
2022/05/20 02:35:12;;;;;;;44.50;29.88;;;13.50;99.90;;;;;;5016959;28;20057;-77
2022/05/20 02:37:39;;;;;;;46.20;30.92;;;13.40;99.90;;;;;;5029504;28;20068;-78
2022/05/20 02:40:06;;;;;;;53.30;32.22;;;13.40;99.90;;;;;;5012995;28;20522;-78
2022/05/20 02:42:32;;;;;;;48.42;31.40;;;13.40;99.90;;;;;;5011357;28;20038;-78
2022/05/20 02:44:59;;;;;;;48.30;31.90;;;13.40;99.90;;;;;;5019688;28;20029;-77
2022/05/20 02:47:31;;;;;;;49.95;32.60;;;13.40;99.90;;;;;;5027466;28;20017;-78
2022/05/20 02:50:09;;;;;;;48.00;32.17;;;13.40;99.90;;;;;;5019070;28;20053;-78
2022/05/20 02:52:35;;;;;;;44.72;30.17;;;13.40;99.90;;;;;;5014184;28;20045;-78
2022/05/20 02:55:02;;;;;;;43.38;29.45;;;13.40;99.90;;;;;;5017246;28;20056;-78
2022/05/20 02:57:28;;;;;;;48.72;31.27;;;13.40;99.90;;;;;;5014452;28;20029;-78
2022/05/20 03:05:22;;;;;;;49.55;32.40;;;13.40;99.90;;;;;;5031076;28;20043;-78
2022/05/20 03:07:48;;;;;;;54.55;33.50;;;13.40;99.90;;;;;;5025951;28;20420;-77
2022/05/20 03:10:14;;;;;;;54.88;33.00;;;13.40;99.90;;;;;;5031047;28;20013;-77
2022/05/20 03:12:39;;;;;;;53.28;35.15;;;13.50;99.90;;;;;;5030977;28;20025;-77
2022/05/20 03:15:10;;;;;;;57.95;33.78;;;13.50;99.90;;;;;;5029226;28;20424;-77
2022/05/20 03:17:36;;;;;;;48.35;31.35;;;13.50;99.90;;;;;;5031265;28;20029;-77
2022/05/20 03:20:03;;;;;;;50.88;33.83;;;13.50;99.90;;;;;;5030515;28;20025;-77
2022/05/20 03:22:29;;;;;;;48.92;33.25;;;13.50;99.90;;;;;;5030815;28;20014;-78
2022/05/20 03:24:55;;;;;;;49.60;31.88;;;13.60;99.90;;;;;;5030955;28;20044;-77
2022/05/20 03:27:20;;;;;;;49.10;32.47;;;13.60;99.90;;;;;;5030469;28;20091;-78
2022/05/20 03:29:47;;;;;;;45.90;32.05;;;13.60;99.90;;;;;;5030164;28;20058;-77
2022/05/20 03:32:13;;;;;;;53.05;34.78;;;13.60;99.90;;;;;;5027508;28;20243;-78
2022/05/20 03:34:40;;;;;;;52.38;34.75;;;13.60;99.90;;;;;;5010708;28;20026;-78
2022/05/20 03:37:06;;;;;;;60.22;36.08;;;13.60;99.90;;;;;;5010797;28;20058;-78
2022/05/20 03:39:32;;;;;;;52.72;34.90;;;13.60;99.90;;;;;;5015059;28;20091;-78
2022/05/20 03:41:58;;;;;;;53.58;34.88;;;13.60;99.90;;;;;;5012784;28;20111;-78
2022/05/20 03:44:24;;;;;;;58.53;36.85;;;13.60;99.90;;;;;;5030732;28;20029;-78
2022/05/20 03:46:52;;;;;;;54.53;34.15;;;13.60;99.90;;;;;;5018015;28;20033;-78
2022/05/20 03:49:19;;;;;;;53.05;34.05;;;13.60;99.90;;;;;;5011549;28;20037;-78
2022/05/20 03:51:47;;;;;;;53.28;34.97;;;13.70;99.90;;;;;;5029919;28;20030;-78
2022/05/20 03:54:17;;;;;;;54.50;35.80;;;13.70;99.90;;;;;;5030279;28;20083;-78
2022/05/20 03:56:43;;;;;;;56.22;34.35;;;13.70;99.90;;;;;;5031902;28;20036;-78
2022/05/20 03:59:09;;;;;;;60.08;34.60;;;13.70;99.90;;;;;;5034364;28;20465;-78
2022/05/20 04:04:21;;;;;;;;;;;13.70;99.90;;;;;;5034850;28;20493;-78
2022/05/20 04:06:46;;;;;;;57.85;34.28;;;13.60;99.90;;;;;;5034203;28;20004;-78
2022/05/20 04:09:12;;;;;;;51.60;33.25;;;13.60;99.90;;;;;;5027786;28;20100;-78
2022/05/20 04:11:38;;;;;;;53.78;34.65;;;13.70;99.90;;;;;;5021503;28;20404;-78
2022/05/20 04:14:04;;;;;;;55.22;35.30;;;13.60;99.90;;;;;;5030733;28;20053;-78
2022/05/20 04:16:29;;;;;;;53.35;34.08;;;13.60;99.90;;;;;;5034179;28;20026;-78
2022/05/20 04:18:55;;;;;;;56.92;34.75;;;13.60;99.90;;;;;;5029563;28;20408;-78
2022/05/20 04:21:21;;;;;;;57.92;33.45;;;13.60;99.90;;;;;;5018166;28;20386;-76
2022/05/20 04:23:47;;;;;;;56.65;35.83;;;13.60;99.90;;;;;;5028925;28;20436;-76
2022/05/20 04:26:13;;;;;;;57.42;35.75;;;13.60;99.90;;;;;;5025018;28;20042;-77
2022/05/20 04:28:39;;;;;;;56.50;36.80;;;13.60;99.90;;;;;;5016031;28;20033;-77
2022/05/20 04:31:07;;;;;;;52.85;35.25;;;13.60;99.90;;;;;;5023751;28;20509;-77
2022/05/20 04:33:33;;;;;;;60.05;36.53;;;13.60;99.90;;;;;;5019120;28;20033;-77
2022/05/20 04:35:59;;;;;;;63.08;37.28;;;13.60;99.90;;;;;;5018451;28;20414;-78
2022/05/20 04:38:24;;;;;;;58.63;36.80;;;13.60;99.90;;;;;;5015457;28;20033;-77
2022/05/20 04:49:05;;;;;;;65.10;39.58;;;13.70;99.90;;;;;;5020109;28;20036;-78
2022/05/20 04:51:34;;;;;;;70.75;39.58;;;13.70;99.90;;;;;;5035381;28;20194;-77
2022/05/20 04:56:45;;;;;;;69.32;39.67;;;13.70;99.90;;;;;;5031515;28;20040;-77
2022/05/20 04:59:11;;;;;;;64.70;40.10;;;13.70;99.90;;;;;;5030291;28;20032;-78
2022/05/20 05:01:37;;;;;;;67.10;40.25;;;13.80;99.90;;;;;;5043107;28;20025;-78
2022/05/20 05:04:02;;;;;;;65.45;39.22;;;13.80;99.90;;;;;;5035547;28;20031;-79
2022/05/20 05:06:28;;;;;;;67.47;38.25;;;13.80;99.90;;;;;;5016171;28;20121;-79
2022/05/20 05:08:53;;;;;;;65.10;39.95;;;13.80;99.90;;;;;;5019364;28;20485;-80
2022/05/20 05:11:20;;;;;;;67.22;40.03;;;13.90;99.90;;;;;;5019462;28;20032;-80
2022/05/20 05:13:46;;;;;;;67.28;40.22;;;13.90;99.90;;;;;;5018502;28;20064;-77
2022/05/20 05:16:12;;;;;;;69.13;41.38;;;13.90;99.90;;;;;;5018064;28;20466;-77
2022/05/20 05:18:37;;;;;;;67.22;39.63;;;13.90;99.90;;;;;;5016303;28;20100;-76
2022/05/20 05:21:03;;;;;;;64.65;40.47;;;13.90;99.90;;;;;;5017767;28;20492;-76
2022/05/20 05:23:29;;;;;;;73.97;41.63;;;14.00;99.90;;;;;;5034034;28;20457;-76
2022/05/20 05:25:55;;;;;;;69.00;42.05;;;14.00;99.90;;;;;;5033840;28;20079;-76
2022/05/20 05:28:21;;;;;;;66.63;41.38;;;14.10;99.90;;;;;;5036277;28;20025;-76
2022/05/20 05:30:49;;;;;;;71.88;41.78;;;14.10;99.90;;;;;;5011608;28;20297;-76
2022/05/20 05:33:16;;;;;;;68.93;41.10;;;14.20;99.90;;;;;;5027166;28;20387;-78
2022/05/20 05:35:42;;;;;;;73.03;42.42;;;14.20;99.90;;;;;;5052687;28;20032;-77
2022/05/20 05:38:08;;;;;;;69.38;44.35;;;14.30;99.90;;;;;;5032293;28;20022;-77
2022/05/20 05:40:33;;;;;;;73.10;43.78;;;14.40;99.90;;;;;;5013463;28;20149;-79
2022/05/20 05:43:00;;;;;;;78.25;46.22;;;14.40;99.90;;;;;;5012898;28;20029;-78
2022/05/20 05:45:27;;;;;;;76.60;45.60;;;14.50;99.90;;;;;;5011920;28;20453;-77
2022/05/20 05:47:59;;;;;;;80.38;46.63;;;14.50;99.90;;;;;;5020153;28;20141;-77
2022/05/20 05:50:27;;;;;;;86.78;48.25;;;14.60;99.90;;;;;;5029032;28;20104;-76
2022/05/20 05:53:23;;;;;;;82.38;47.25;;;14.60;99.90;;;;;;5030571;28;20021;-76
2022/05/20 05:55:54;;;;;;;80.70;45.70;;;14.70;99.90;;;;;;5032278;28;20120;-76
2022/05/20 05:58:19;;;;;;;80.97;46.22;;;14.70;99.90;;;;;;5023639;28;20025;-76
2022/05/20 06:00:45;;;;;;;72.85;44.38;;;14.80;99.90;;;;;;5024255;28;20029;-76
2022/05/20 06:03:11;;;;;;;66.70;40.00;;;14.90;99.90;;;;;;5008624;28;20033;-76
2022/05/20 06:05:37;;;;;;;71.60;42.92;;;14.90;99.90;;;;;;5012112;28;20022;-76
2022/05/20 06:08:02;;;;;;;64.25;40.50;;;14.90;99.90;;;;;;5010751;28;20027;-76
2022/05/20 06:10:28;;;;;;;67.07;41.22;;;14.90;99.90;;;;;;5026405;28;20031;-76
2022/05/20 06:12:57;;;;;;;66.32;39.75;;;15.00;99.90;;;;;;5028181;28;20112;-76
2022/05/20 06:15:23;;;;;;;69.85;41.55;;;15.00;99.90;;;;;;5017792;28;20030;-76
2022/05/20 06:17:52;;;;;;;71.85;42.15;;;15.10;99.90;;;;;;5015586;28;20025;-76
2022/05/20 06:20:19;;;;;;;76.30;40.95;;;15.10;99.90;;;;;;5043703;28;20021;-76
2022/05/20 06:22:45;;;;;;;71.45;41.30;;;15.20;99.90;;;;;;5034444;28;20032;-76
2022/05/20 06:25:12;;;;;;;65.47;39.63;;;15.30;99.90;;;;;;5031667;28;20112;-76
2022/05/20 06:27:39;;;;;;;64.22;38.55;;;15.40;99.90;;;;;;5031415;28;20091;-76
2022/05/20 06:30:08;;;;;;;65.63;38.33;;;15.50;99.90;;;;;;5025215;28;20112;-76
2022/05/20 06:32:34;;;;;;;57.97;36.50;;;15.60;99.90;;;;;;5020550;28;20026;-79
2022/05/20 06:40:36;;;;;;;59.80;34.30;;;15.80;99.90;;;;;;5011900;28;20040;-79
2022/05/20 06:43:02;;;;;;;63.20;35.67;;;15.80;99.90;;;;;;5011556;28;20034;-79
2022/05/20 06:45:31;;;;;;;56.58;35.03;;;15.90;99.90;;;;;;5011522;28;20034;-79
2022/05/20 06:47:58;;;;;;;51.80;33.53;;;15.90;99.90;;;;;;5010385;28;20498;-79
2022/05/20 06:50:24;;;;;;;56.05;32.53;;;16.00;99.90;;;;;;5011692;28;20025;-79
2022/05/20 06:52:49;;;;;;;52.85;32.42;;;16.10;99.90;;;;;;5011598;28;20065;-79
2022/05/20 06:55:15;;;;;;;47.03;28.52;;;16.30;99.90;;;;;;5011478;28;20496;-79
2022/05/20 06:57:41;;;;;;;45.20;26.52;;;16.40;99.90;;;;;;5010306;28;20100;-79
2022/05/20 07:00:11;;;;;;;42.88;25.73;;;16.50;99.90;;;;;;5011354;28;20105;-79
2022/05/20 07:02:38;;;;;;;41.90;24.85;;;16.70;99.90;;;;;;5011666;28;20140;-79
2022/05/20 07:05:04;;;;;;;39.25;24.83;;;16.80;99.90;;;;;;5011246;28;20565;-79
2022/05/20 07:07:31;;;;;;;44.10;23.67;;;16.90;99.90;;;;;;5010048;28;20180;-79
2022/05/20 07:09:57;;;;;;;35.35;21.65;;;17.10;99.90;;;;;;5011296;28;20026;-79
2022/05/20 07:12:22;;;;;;;32.38;19.73;;;17.10;99.90;;;;;;5011162;28;20033;-79
2022/05/20 07:14:48;;;;;;;32.40;18.63;;;17.30;99.90;;;;;;5011331;28;20033;-79
2022/05/20 07:17:18;;;;;;;27.50;18.00;;;17.40;99.90;;;;;;5011093;28;20117;-79
2022/05/20 07:19:44;;;;;;;26.25;16.48;;;17.50;99.90;;;;;;5011193;28;20034;-79
2022/05/20 07:22:09;;;;;;;24.23;15.43;;;17.50;99.90;;;;;;5010848;28;20026;-79
2022/05/20 07:24:37;;;;;;;23.92;14.45;;;17.60;99.90;;;;;;5009919;28;20113;-79
2022/05/20 07:27:03;;;;;;;23.52;14.32;;;17.60;99.90;;;;;;5011132;28;20033;-79
2022/05/20 07:29:28;;;;;;;24.75;14.07;;;17.80;99.90;;;;;;5011026;28;20026;-79
2022/05/20 07:31:54;;;;;;;22.27;12.88;;;17.90;99.90;;;;;;5010183;28;20382;-78
2022/05/20 07:34:19;;;;;;;19.80;11.93;;;18.00;99.90;;;;;;5009755;28;20112;-78
2022/05/20 07:36:45;;;;;;;16.90;11.05;;;18.00;99.90;;;;;;5010763;28;20030;-79
2022/05/20 07:39:10;;;;;;;19.05;12.00;;;18.20;99.90;;;;;;5010805;28;20018;-79
2022/05/20 07:41:36;;;;;;;18.05;12.07;;;18.30;99.90;;;;;;5010739;28;20057;-78
2022/05/20 07:44:02;;;;;;;21.65;11.70;;;18.30;99.90;;;;;;5011230;28;20470;-78
2022/05/20 07:46:28;;;;;;;20.73;11.07;;;18.40;99.90;;;;;;5011051;28;20030;-79
2022/05/20 07:48:54;;;;;;;20.13;12.10;;;18.50;99.90;;;;;;5010641;28;20048;-79
2022/05/20 07:51:23;;;;;;;18.17;11.32;;;18.50;99.90;;;;;;5010595;28;20045;-78
2022/05/20 07:54:19;;;;;;;21.55;12.35;;;18.60;99.90;;;;;;5010700;28;20509;-79
2022/05/20 07:56:51;;;;;;;18.65;12.02;;;18.60;99.90;;;;;;5010263;28;20045;-79
2022/05/20 07:59:25;;;;;;;19.60;12.68;;;18.70;99.90;;;;;;5010706;28;20075;-79
2022/05/20 08:01:52;;;;;;;23.20;13.52;;;18.70;99.90;;;;;;5010866;28;20026;-79
2022/05/20 08:04:53;;;;;;;24.20;12.90;;;18.80;99.90;;;;;;5010537;28;20490;-79
2022/05/20 08:07:27;;;;;;;24.48;12.88;;;19.00;99.90;;;;;;5010619;28;20025;-78
2022/05/20 08:09:53;;;;;;;21.77;12.75;;;19.00;99.90;;;;;;5011003;28;20057;-78
2022/05/20 08:12:19;;;;;;;18.10;11.90;;;19.10;99.90;;;;;;5034656;28;20025;-80
2022/05/20 08:14:45;;;;;;;17.08;11.63;;;19.20;99.90;;;;;;5036193;28;20034;-79
2022/05/20 08:17:11;;;;;;;18.17;11.70;;;19.20;99.90;;;;;;5036258;28;20045;-80
2022/05/20 08:19:38;;;;;;;19.77;12.60;;;19.20;99.90;;;;;;5036243;28;20026;-80
2022/05/20 08:22:03;;;;;;;18.23;12.93;;;19.30;99.90;;;;;;5045577;28;20017;-79
2022/05/20 08:24:30;;;;;;;20.63;12.40;;;19.40;99.90;;;;;;5054158;28;20109;-80
2022/05/20 08:26:56;;;;;;;18.35;12.63;;;19.40;99.90;;;;;;5055795;28;20037;-79
2022/05/20 08:29:23;;;;;;;18.05;12.40;;;19.50;99.90;;;;;;5055827;28;20033;-79
2022/05/20 08:31:49;;;;;;;18.08;12.73;;;19.50;99.90;;;;;;5054226;28;20021;-80
2022/05/20 08:34:14;;;;;;;18.75;12.80;;;19.60;99.90;;;;;;5054533;28;20045;-79
2022/05/20 08:36:41;;;;;;;19.13;12.25;;;19.70;99.90;;;;;;5037774;28;20026;-79
2022/05/20 08:39:12;;;;;;;15.88;11.88;;;19.70;99.90;;;;;;5051994;28;20033;-79
2022/05/20 08:41:44;;;;;;;19.05;11.52;;;19.80;99.90;;;;;;5059146;28;20016;-79
2022/05/20 08:44:13;;;;;;;23.65;11.88;;;19.80;99.90;;;;;;5062624;28;20030;-80
2022/05/20 08:46:41;;;;;;;19.25;10.40;;;19.80;99.90;;;;;;5049303;28;21104;-80
2022/05/20 08:49:15;;;;;;;15.00;10.02;;;19.90;99.90;;;;;;5058470;28;20033;-81
2022/05/20 08:51:47;;;;;;;20.70;10.82;;;19.90;99.90;;;;;;5046528;28;20052;-79
2022/05/20 08:54:12;;;;;;;15.32;10.00;;;19.90;99.90;;;;;;5039518;28;20045;-80
2022/05/20 08:56:38;;;;;;;14.52;9.70;;;19.90;99.90;;;;;;5038533;28;20029;-79
2022/05/20 08:59:18;;;;;;;17.90;10.02;;;20.00;99.90;;;;;;5038823;28;20022;-78
2022/05/20 09:01:47;;;;;;;16.77;10.68;;;20.10;99.90;;;;;;5037263;28;20021;-79
2022/05/20 09:04:17;;;;;;;13.75;9.13;;;20.10;99.90;;;;;;5038674;28;20018;-77
2022/05/20 09:07:04;;;;;;;13.43;8.82;;;20.20;99.90;;;;;;5015716;28;20029;-78
2022/05/20 09:09:50;;;;;;;13.93;8.35;;;20.20;99.90;;;;;;5013404;28;20037;-78
2022/05/20 09:12:31;;;;;;;15.75;9.38;;;20.20;99.90;;;;;;5013333;28;20042;-78
2022/05/20 09:17:48;;;;;;;14.57;8.50;;;20.20;99.90;;;;;;5012927;28;20045;-78
2022/05/20 09:20:17;;;;;;;14.77;8.25;;;20.20;99.90;;;;;;5013576;28;20037;-78
2022/05/20 09:23:05;;;;;;;17.30;7.90;;;20.30;99.90;;;;;;5029550;28;20030;-78
2022/05/20 09:25:36;;;;;;;12.95;7.82;;;20.40;99.90;;;;;;5032913;28;20474;-78
2022/05/20 09:28:23;;;;;;;13.60;7.78;;;20.40;99.90;;;;;;5032500;28;20041;-77
2022/05/20 09:31:01;;;;;;;16.67;7.32;;;20.50;99.90;;;;;;5032607;28;20203;-78
2022/05/20 09:33:31;;;;;;;14.85;6.80;;;20.50;99.90;;;;;;5032800;28;20442;-78
2022/05/20 09:35:59;;;;;;;15.70;7.13;;;20.60;99.90;;;;;;5032691;28;20032;-77
2022/05/20 09:38:36;;;;;;;9.95;6.45;;;20.60;99.90;;;;;;5032885;28;20026;-77
2022/05/20 09:41:18;;;;;;;10.25;6.88;;;20.70;99.90;;;;;;5033161;28;20100;-78
2022/05/20 09:43:50;;;;;;;17.25;7.45;;;20.60;99.90;;;;;;5039881;28;20006;-78
2022/05/20 09:46:40;;;;;;;14.00;6.90;;;20.60;99.90;;;;;;5052497;28;20021;-78
2022/05/20 09:49:13;;;;;;;10.18;7.30;;;20.70;99.90;;;;;;5057933;28;20045;-78
2022/05/20 09:51:48;;;;;;;10.80;7.15;;;20.70;99.90;;;;;;5056226;28;20041;-78
2022/05/20 09:54:35;;;;;;;19.10;8.20;;;20.80;99.90;;;;;;5055270;28;20041;-77
2022/05/20 09:57:12;;;;;;;15.32;7.47;;;20.80;99.90;;;;;;5056962;28;20030;-75
2022/05/20 09:59:56;;;;;;;13.55;7.10;;;20.90;99.90;;;;;;5056608;28;20526;-80
2022/05/20 10:02:30;;;;;;;13.88;8.25;;;20.90;99.90;;;;;;5056404;28;20036;-78
2022/05/20 10:05:14;;;;;;;13.20;7.70;;;20.90;99.90;;;;;;5055668;28;20024;-77
2022/05/20 10:07:43;;;;;;;12.98;8.15;;;20.90;99.90;;;;;;5057193;28;20040;-79
2022/05/20 10:10:23;;;;;;;15.93;7.95;;;20.90;99.90;;;;;;5057894;28;20017;-79
2022/05/20 10:12:50;;;;;;;15.77;9.60;;;20.90;99.90;;;;;;5057484;28;20017;-78
2022/05/20 10:15:24;;;;;;;17.98;10.35;;;21.00;99.90;;;;;;5057801;28;20045;-79
2022/05/20 10:17:58;;;;;;;17.13;9.30;;;21.00;99.90;;;;;;5057859;28;20057;-78
2022/05/20 10:20:57;;;;;;;20.23;10.52;;;21.00;99.90;;;;;;5057656;28;20044;-78
2022/05/20 10:23:55;;;;;;;14.45;9.15;;;21.00;99.90;;;;;;5057971;28;20029;-79
2022/05/20 10:26:33;;;;;;;20.38;11.60;;;21.00;99.90;;;;;;5056411;28;20033;-79
2022/05/20 10:32:34;;;;;;;19.23;10.40;;;21.10;99.90;;;;;;5053893;28;20044;-79
2022/05/20 10:35:09;;;;;;;16.45;9.30;;;21.10;99.90;;;;;;5037549;28;20053;-78
2022/05/20 10:37:47;;;;;;;17.20;10.43;;;21.10;99.90;;;;;;5046248;28;20094;-79
2022/05/20 10:40:27;;;;;;;14.70;8.88;;;21.10;99.90;;;;;;5044235;28;20018;-77
2022/05/20 10:43:17;;;;;;;17.10;9.93;;;21.10;99.90;;;;;;5056774;28;20087;-77
2022/05/20 10:49:03;;;;;;;16.23;9.77;;;21.00;99.90;;;;;;5049471;28;20117;-77
2022/05/20 10:52:11;;;;;;;12.35;9.73;;;20.90;99.90;;;;;;5040711;28;20052;-78
2022/05/20 10:54:39;;;;;;;18.70;10.30;;;20.70;99.90;;;;;;5023568;28;20056;-79
2022/05/20 10:57:33;;;;;;;16.67;10.43;;;20.60;99.90;;;;;;5019909;28;20018;-79
2022/05/20 11:00:37;;;;;;;14.75;9.98;;;20.50;99.90;;;;;;5000124;28;20304;-78
2022/05/20 11:03:21;;;;;;;18.35;10.25;;;20.50;99.90;;;;;;5016337;28;20030;-79
2022/05/20 11:05:53;;;;;;;20.25;10.90;;;20.40;99.90;;;;;;5015538;28;20031;-78
2022/05/20 11:08:35;;;;;;;17.65;9.88;;;20.40;99.90;;;;;;5016572;28;20018;-79
2022/05/20 11:11:31;;;;;;;16.20;9.98;;;20.40;99.90;;;;;;5000260;28;20027;-78
2022/05/20 11:14:29;;;;;;;13.25;10.00;;;20.40;99.90;;;;;;5016453;28;20030;-78
2022/05/20 11:17:07;;;;;;;15.70;10.60;;;20.40;99.90;;;;;;5016411;28;20082;-79
2022/05/20 11:19:59;;;;;;;13.57;10.52;;;20.40;99.90;;;;;;5000455;28;20031;-78
2022/05/20 11:22:36;;;;;;;15.70;10.48;;;20.30;99.90;;;;;;5042261;28;20037;-78
2022/05/20 11:25:10;;;;;;;16.05;9.82;;;20.30;99.90;;;;;;5043127;28;20034;-78
2022/05/20 11:27:47;;;;;;;14.88;9.88;;;20.20;99.90;;;;;;5051760;28;20020;-78
2022/05/20 11:30:31;;;;;;;15.38;11.18;;;20.20;99.90;;;;;;5056529;28;20046;-79
2022/05/20 11:33:30;;;;;;;16.98;10.85;;;20.10;99.90;;;;;;5052780;28;20022;-78
2022/05/20 11:36:31;;;;;;;19.50;11.15;;;20.10;99.90;;;;;;5029622;28;20032;-75
2022/05/20 11:39:26;;;;;;;19.10;11.63;;;20.10;99.90;;;;;;5034142;28;20475;-76
2022/05/20 11:42:17;;;;;;;24.70;13.57;;;20.00;99.90;;;;;;5031343;28;20036;-77
2022/05/20 11:45:11;;;;;;;25.13;13.88;;;19.90;99.90;;;;;;5016526;28;20026;-77
2022/05/20 11:48:01;;;;;;;25.00;14.52;;;19.80;99.90;;;;;;5016163;28;20018;-76
2022/05/20 11:51:06;;;;;;;21.85;13.85;;;19.70;99.90;;;;;;5015815;28;20125;-76
2022/05/20 11:53:38;;;;;;;20.63;12.75;;;19.50;99.90;;;;;;5014997;28;20124;-77
2022/05/20 11:56:17;;;;;;;25.98;13.65;;;19.30;99.90;;;;;;5021458;28;20048;-78
2022/05/20 11:58:57;;;;;;;17.17;12.45;;;19.20;99.90;;;;;;5021618;28;20591;-78
2022/05/20 12:01:25;;;;;;;20.42;13.43;;;19.10;99.90;;;;;;5018368;28;20042;-78
2022/05/20 12:04:09;;;;;;;20.90;13.63;;;19.00;99.90;;;;;;5007983;28;20036;-78
2022/05/20 12:06:49;;;;;;;31.57;15.67;;;18.90;99.90;;;;;;5010675;28;20065;-78
2022/05/20 12:09:30;;;;;;;26.25;14.95;;;18.80;99.90;;;;;;5024263;28;20026;-79
2022/05/20 12:12:30;;;;;;;28.27;17.75;;;18.70;99.90;;;;;;5024677;28;20095;-79
2022/05/20 12:15:14;;;;;;;28.70;17.65;;;18.50;99.90;;;;;;5027482;28;20025;-79
2022/05/20 12:17:46;;;;;;;25.52;17.08;;;18.30;99.90;;;;;;5017657;28;20109;-79
2022/05/20 12:26:03;;;;;;;28.75;15.95;;;18.00;99.90;;;;;;5030602;28;20033;-80
2022/05/20 12:28:33;;;;;;;27.48;17.98;;;17.90;99.90;;;;;;5025129;28;20026;-80
2022/05/20 12:31:25;;;;;;;26.10;17.90;;;17.80;99.90;;;;;;5022036;28;20080;-80
2022/05/20 12:33:59;;;;;;;27.65;18.25;;;17.80;99.90;;;;;;5027379;28;20041;-80
2022/05/20 12:36:27;;;;;;;29.58;18.70;;;17.80;99.90;;;;;;5025828;28;20197;-79
2022/05/20 12:39:16;;;;;;;26.92;18.15;;;17.80;99.90;;;;;;5032392;28;20016;-79
2022/05/20 12:41:53;;;;;;;26.45;16.38;;;17.70;99.90;;;;;;5032646;28;20068;-79
2022/05/20 12:44:21;;;;;;;23.40;15.43;;;17.70;99.90;;;;;;5025956;28;20034;-77
2022/05/20 12:47:05;;;;;;;25.25;16.00;;;17.70;99.90;;;;;;5034425;28;20020;-80
2022/05/20 12:50:31;;;;;;;23.08;14.52;;;17.70;99.90;;;;;;5036365;28;20018;-79
2022/05/20 12:53:08;;;;;;;24.73;15.52;;;17.60;99.90;;;;;;4997406;28;20029;-79
2022/05/20 12:55:43;;;;;;;27.25;16.08;;;17.50;99.90;;;;;;4992562;28;20018;-79
2022/05/20 12:58:11;;;;;;;;;;;17.50;99.90;;;;;;4987076;28;20106;-79
2022/05/20 13:00:42;;;;;;;29.15;17.23;;;17.40;99.90;;;;;;4995404;28;19906;-79
2022/05/20 13:03:15;;;;;;;26.30;16.77;;;17.40;99.90;;;;;;5006217;28;20030;-79
2022/05/20 13:05:55;;;;;;;23.48;17.00;;;17.40;99.90;;;;;;5001523;28;20023;-79
2022/05/20 13:08:26;;;;;;;21.15;16.38;;;17.40;99.90;;;;;;4992871;28;20031;-79
2022/05/20 13:10:51;;;;;;;27.58;16.95;;;17.30;99.90;;;;;;4961816;28;20394;-79
2022/05/20 13:13:23;;;;;;;31.60;19.15;;;17.20;99.90;;;;;;4992959;28;20023;-79
2022/05/20 13:15:52;;;;;;;27.05;18.85;;;17.10;99.90;;;;;;4990774;28;20041;-78
2022/05/20 13:18:21;;;;;;;31.77;19.20;;;17.00;99.90;;;;;;4993640;28;20117;-77
2022/05/20 13:20:50;;;;;;;29.50;19.42;;;16.90;99.90;;;;;;4981469;28;20023;-79
2022/05/20 13:23:25;;;;;;;27.83;19.45;;;16.70;99.90;;;;;;4998482;28;20113;-78
2022/05/20 13:25:50;;;;;;;31.25;20.42;;;16.60;99.90;;;;;;5021494;28;20021;-79
2022/05/20 13:28:34;;;;;;;32.95;21.17;;;16.50;99.90;;;;;;5017903;28;20038;-78
2022/05/20 13:31:09;;;;;;;31.60;20.98;;;16.30;99.90;;;;;;5020578;28;20086;-78
2022/05/20 13:33:37;;;;;;;31.00;18.73;;;16.30;99.90;;;;;;5030230;28;20029;-79
2022/05/20 13:36:06;;;;;;;26.42;15.23;;;16.20;99.90;;;;;;5032781;28;20083;-78